createdAt,value
2019-04-14T00:00:46.845Z,72.50
2019-04-14T00:03:23.870Z,72.70
2019-04-14T00:05:58.314Z,72.80
2019-04-14T00:08:28.427Z,71.80
2019-04-14T00:10:59.321Z,72.20
2019-04-14T00:13:29.171Z,72.10
2019-04-14T00:15:58.937Z,72.40
2019-04-14T00:18:29.408Z,72.60
2019-04-14T00:20:59.879Z,72.80
2019-04-14T00:23:30.417Z,74.00
2019-04-14T00:26:29.457Z,73.80
2019-04-14T00:29:00.048Z,73.80
2019-04-14T00:31:30.732Z,73.60
2019-04-14T00:34:02.885Z,73.20
2019-04-14T00:36:37.266Z,72.80
2019-04-14T00:39:21.003Z,72.60
2019-04-14T00:42:03.334Z,73.00
2019-04-14T00:44:41.013Z,73.20
2019-04-14T00:47:22.194Z,72.80
2019-04-14T00:49:53.036Z,72.90
2019-04-14T00:52:23.371Z,73.50
2019-04-14T00:54:54.249Z,74.20
2019-04-14T00:57:24.752Z,75.10
2019-04-14T00:59:55.231Z,75.00
2019-04-14T01:02:25.343Z,75.20
2019-04-14T01:04:55.523Z,74.50
2019-04-14T01:07:26.189Z,74.40
2019-04-14T01:09:55.797Z,73.90
2019-04-14T01:12:25.750Z,74.70
2019-04-14T01:14:56.000Z,76.00
2019-04-14T01:17:26.589Z,76.40
2019-04-14T01:19:57.042Z,76.80
2019-04-14T01:22:27.066Z,76.30
2019-04-14T01:24:57.559Z,77.00
2019-04-14T01:27:27.772Z,77.30
2019-04-14T01:29:58.160Z,76.80
2019-04-14T01:32:28.309Z,76.10
2019-04-14T01:34:58.928Z,76.70
2019-04-14T01:37:29.085Z,77.80
2019-04-14T01:39:58.978Z,78.20
2019-04-14T01:42:28.955Z,77.80
2019-04-14T01:44:59.273Z,77.50
2019-04-14T01:47:29.209Z,76.80
2019-04-14T01:49:59.505Z,77.20
2019-04-14T01:52:34.141Z,78.50
2019-04-14T01:55:13.383Z,77.10
2019-04-14T01:57:44.620Z,76.90
2019-04-14T02:00:33.667Z,78.00
2019-04-14T02:03:04.515Z,78.70
2019-04-14T02:05:34.372Z,77.90
2019-04-14T02:08:04.507Z,77.80
2019-04-14T02:10:34.735Z,78.50
2019-04-14T02:13:04.974Z,79.40
2019-04-14T02:15:35.214Z,78.70
2019-04-14T02:18:05.712Z,78.40
2019-04-14T02:20:36.060Z,77.40
2019-04-14T02:23:06.125Z,77.80
2019-04-14T02:25:36.085Z,78.40
2019-04-14T02:28:06.833Z,79.20
2019-04-14T02:30:46.043Z,79.70
2019-04-14T02:36:14.256Z,78.80
2019-04-14T02:38:41.022Z,78.30
2019-04-14T02:41:10.708Z,77.90
2019-04-14T02:43:57.645Z,78.50
2019-04-14T02:51:13.820Z,79.60
2019-04-14T02:56:22.328Z,79.30
2019-04-14T02:58:58.703Z,80.10
2019-04-14T03:01:14.683Z,80.00
2019-04-14T03:03:49.483Z,80.50
2019-04-14T03:06:17.869Z,80.00
2019-04-14T03:09:07.994Z,80.20
2019-04-14T03:11:24.560Z,81.10
2019-04-14T03:13:51.494Z,81.80
2019-04-14T03:16:33.018Z,81.70
2019-04-14T03:19:06.760Z,81.30
2019-04-14T03:24:28.545Z,80.40
2019-04-14T03:27:06.316Z,81.40
2019-04-14T03:32:32.330Z,83.10
2019-04-14T03:34:50.128Z,82.90
2019-04-14T03:39:46.585Z,83.20
2019-04-14T03:42:19.886Z,82.00
2019-04-14T03:44:49.473Z,82.30
2019-04-14T03:47:19.752Z,82.50
2019-04-14T03:49:52.446Z,81.80
2019-04-14T03:52:23.975Z,82.10
2019-04-14T03:54:47.130Z,82.20
2019-04-14T03:56:59.866Z,82.40
2019-04-14T03:59:30.303Z,82.90
2019-04-14T04:02:01.007Z,82.80
2019-04-14T04:04:31.537Z,82.80
2019-04-14T04:07:01.845Z,81.90
2019-04-14T04:09:34.272Z,81.50
2019-04-14T04:12:05.187Z,82.40
2019-04-14T04:14:35.693Z,82.60
2019-04-14T04:17:07.968Z,82.90
2019-04-14T04:19:49.178Z,82.10
2019-04-14T04:22:39.025Z,82.30
2019-04-14T04:25:11.492Z,80.80
2019-04-14T04:27:59.092Z,80.00
2019-04-14T04:30:36.273Z,80.30
2019-04-14T04:33:11.000Z,81.00
2019-04-14T04:35:42.175Z,82.20
2019-04-14T04:38:29.883Z,81.80
2019-04-14T04:40:59.513Z,81.70
2019-04-14T04:43:29.743Z,81.70
2019-04-14T04:46:00.662Z,81.80
2019-04-14T04:48:30.828Z,82.30
2019-04-14T04:51:00.669Z,82.50
2019-04-14T04:53:30.952Z,82.60
2019-04-14T04:56:01.488Z,83.00
2019-04-14T04:58:32.659Z,83.20
2019-04-14T05:01:03.516Z,83.00
2019-04-14T05:03:33.990Z,82.00
2019-04-14T05:06:41.711Z,81.70
2019-04-14T05:09:14.412Z,81.80
2019-04-14T05:11:46.868Z,82.70
2019-04-14T05:14:28.351Z,83.90
2019-04-14T05:16:57.996Z,83.80
2019-04-14T05:19:31.845Z,83.10
2019-04-14T05:21:58.786Z,83.40
2019-04-14T05:24:29.060Z,83.10
2019-04-14T05:26:59.274Z,82.50
2019-04-14T05:29:29.754Z,82.50
2019-04-14T05:32:00.115Z,82.70
2019-04-14T05:34:30.461Z,83.40
2019-04-14T05:37:00.690Z,82.70
2019-04-14T05:39:30.824Z,83.30
2019-04-14T05:42:10.730Z,82.30
2019-04-14T05:44:31.938Z,82.30
2019-04-14T05:47:02.189Z,82.00
2019-04-14T05:49:39.150Z,81.50
2019-04-14T05:52:03.420Z,80.10
2019-04-14T05:54:33.986Z,79.60
2019-04-14T05:57:04.402Z,79.30
2019-04-14T05:59:35.233Z,79.40
2019-04-14T06:02:05.348Z,79.70
2019-04-14T06:04:35.260Z,79.60
2019-04-14T06:07:05.198Z,80.80
2019-04-14T06:09:34.774Z,80.50
2019-04-14T06:12:04.352Z,80.70
2019-04-14T06:14:33.953Z,80.40
2019-04-14T06:17:03.533Z,80.60
2019-04-14T06:19:37.950Z,81.00
2019-04-14T06:22:05.036Z,81.60
2019-04-14T06:24:34.624Z,80.10
2019-04-14T06:27:04.196Z,80.00
2019-04-14T06:29:33.791Z,79.10
2019-04-14T06:32:14.107Z,78.40
2019-04-14T06:35:01.566Z,78.20
2019-04-14T06:37:32.780Z,78.10
2019-04-14T06:40:03.995Z,78.60
2019-04-14T06:42:33.571Z,79.00
2019-04-14T06:45:03.337Z,78.70
2019-04-14T06:47:32.923Z,78.00
2019-04-14T06:50:02.508Z,77.90
2019-04-14T06:52:32.094Z,77.30
2019-04-14T06:55:01.683Z,77.90
2019-04-14T06:57:31.255Z,77.90
2019-04-14T07:00:00.834Z,77.50
2019-04-14T07:02:30.421Z,78.70
2019-04-14T07:05:00.120Z,77.50
2019-04-14T07:07:29.699Z,77.70
2019-04-14T07:09:59.287Z,79.50
2019-04-14T07:12:28.909Z,80.60
2019-04-14T07:14:58.728Z,79.00
2019-04-14T07:17:29.723Z,77.40
2019-04-14T07:20:02.357Z,77.40
2019-04-14T07:22:30.980Z,77.30
2019-04-14T07:25:00.555Z,77.30
2019-04-14T07:27:30.128Z,78.50
2019-04-14T07:30:01.345Z,77.70
2019-04-14T07:32:35.295Z,77.00
2019-04-14T07:35:16.283Z,77.20
2019-04-14T07:37:47.512Z,77.10
2019-04-14T07:40:30.753Z,77.10
2019-04-14T07:43:04.798Z,77.40
2019-04-14T07:45:53.076Z,77.00
2019-04-14T07:48:24.306Z,76.50
2019-04-14T07:51:11.918Z,75.80
2019-04-14T07:53:46.329Z,75.70
2019-04-14T07:56:20.431Z,74.90
2019-04-14T07:58:57.519Z,75.00
2019-04-14T08:01:40.707Z,74.70
2019-04-14T08:04:14.651Z,75.80
2019-04-14T08:06:45.890Z,76.00
2019-04-14T08:09:15.467Z,76.10
2019-04-14T08:11:45.066Z,75.30
2019-04-14T08:14:14.635Z,75.40
2019-04-14T08:16:48.186Z,75.70
2019-04-14T08:19:18.365Z,75.10
2019-04-14T08:21:47.960Z,74.30
2019-04-14T08:24:17.551Z,73.50
2019-04-14T08:26:47.132Z,71.30
2019-04-14T08:29:16.740Z,72.00
2019-04-14T08:31:46.322Z,71.20
2019-04-14T08:34:15.907Z,70.60
2019-04-14T08:36:45.548Z,70.20
2019-04-14T08:39:15.139Z,70.00
2019-04-14T08:41:52.201Z,69.10
2019-04-14T08:44:32.646Z,68.50
2019-04-14T08:47:03.856Z,68.30
2019-04-14T08:49:37.745Z,66.50
2019-04-14T08:52:17.969Z,66.40
2019-04-14T08:54:49.199Z,67.00
2019-04-14T08:57:20.428Z,67.90
2019-04-14T09:00:03.921Z,67.30
2019-04-14T09:02:34.327Z,66.20
2019-04-14T09:05:06.809Z,65.60
2019-04-14T09:07:38.011Z,65.70
2019-04-14T09:10:15.412Z,66.60
2019-04-14T09:12:52.084Z,65.10
2019-04-14T09:15:21.672Z,64.80
2019-04-14T09:17:51.252Z,64.70
2019-04-14T09:20:20.859Z,65.40
2019-04-14T09:22:50.458Z,65.40
2019-04-14T09:25:20.020Z,63.70
2019-04-14T09:27:49.596Z,63.10
2019-04-14T09:30:19.177Z,62.80
2019-04-14T09:32:48.747Z,65.00
2019-04-14T09:35:18.348Z,63.90
2019-04-14T09:37:47.923Z,64.10
2019-04-14T09:40:17.539Z,64.30
2019-04-14T09:42:47.123Z,65.90
2019-04-14T09:45:16.722Z,66.00
2019-04-14T09:47:46.546Z,65.60
2019-04-14T09:50:16.155Z,66.10
2019-04-14T09:52:45.809Z,66.90
2019-04-14T09:55:15.469Z,65.70
2019-04-14T09:57:45.055Z,66.80
2019-04-14T10:00:15.983Z,66.10
2019-04-14T10:02:45.557Z,67.00
2019-04-14T10:05:15.164Z,67.50
2019-04-14T10:07:44.747Z,67.00
2019-04-14T10:10:14.334Z,66.70
2019-04-14T10:12:43.910Z,67.30
2019-04-14T10:15:13.551Z,66.20
2019-04-14T10:45:22.763Z,73.90
2019-04-14T10:47:52.349Z,74.50
2019-04-14T10:50:30.563Z,72.80
2019-04-14T10:52:54.783Z,71.40
2019-04-14T10:55:24.371Z,71.00
2019-04-14T10:57:53.935Z,70.70
2019-04-14T11:00:23.644Z,70.00
2019-04-14T11:02:53.309Z,69.50
2019-04-14T11:05:23.656Z,67.30
2019-04-14T11:07:53.233Z,66.90
2019-04-14T11:10:22.820Z,66.10
2019-04-14T11:12:52.431Z,65.80
2019-04-14T11:15:22.033Z,65.50
2019-04-14T11:17:51.625Z,65.80
2019-04-14T11:20:21.272Z,66.90
2019-04-14T11:23:02.527Z,64.90
2019-04-14T11:25:22.154Z,63.30
2019-04-14T11:27:51.737Z,61.50
2019-04-14T11:30:22.935Z,61.30
2019-04-14T11:33:03.214Z,61.60
2019-04-14T11:35:40.385Z,62.00
2019-04-14T11:38:11.602Z,60.50
2019-04-14T11:40:45.619Z,59.50
2019-04-14T11:43:15.249Z,58.70
2019-04-14T11:45:44.930Z,58.40
2019-04-14T11:48:14.533Z,59.20
2019-04-14T11:50:44.126Z,60.60
2019-04-14T11:53:13.712Z,59.60
2019-04-14T11:55:43.292Z,58.20
2019-04-14T11:58:12.892Z,57.10
2019-04-14T12:00:50.517Z,57.00
2019-04-14T12:03:39.810Z,56.70
2019-04-14T19:19:04.930Z,49.40
2019-04-14T19:21:34.495Z,50.10
2019-04-14T19:24:04.153Z,49.60
2019-04-14T19:26:33.739Z,48.80
2019-04-14T19:29:03.424Z,48.10
2019-04-14T19:31:33.059Z,47.80
2019-04-14T19:34:02.671Z,47.60
2019-04-14T19:36:32.250Z,47.00
2019-04-14T19:39:02.191Z,46.80
2019-04-14T19:41:31.801Z,46.80
2019-04-14T19:44:01.488Z,46.90
2019-04-14T19:46:32.877Z,47.00
2019-04-14T19:49:02.820Z,47.30
2019-04-14T19:51:32.431Z,47.50
2019-04-14T19:54:02.092Z,47.60
2019-04-14T19:56:31.684Z,47.90
2019-04-14T19:59:01.363Z,47.90
2019-04-14T20:01:31.829Z,48.20
2019-04-14T20:04:01.375Z,48.10
2019-04-14T20:06:31.036Z,48.40
2019-04-14T20:09:00.692Z,48.50
2019-04-14T20:11:30.294Z,48.50
2019-04-14T20:13:59.956Z,48.60
2019-04-14T20:16:33.789Z,48.80
2019-04-14T20:19:14.573Z,49.40
2019-04-14T20:21:51.986Z,49.20
2019-04-14T20:24:29.354Z,49.50
2019-04-14T20:27:00.781Z,49.30
2019-04-14T20:29:32.067Z,49.30
2019-04-14T20:32:06.056Z,49.20
2019-04-14T20:34:36.619Z,49.80
2019-04-14T20:37:06.211Z,50.10
2019-04-14T20:39:36.693Z,50.10
2019-04-14T20:42:07.106Z,50.10
2019-04-14T20:44:37.157Z,49.90
2019-04-14T20:47:08.484Z,49.70
2019-04-14T20:49:38.553Z,49.80
2019-04-14T20:52:08.688Z,50.20
2019-04-14T20:54:38.278Z,50.50
2019-04-14T20:57:08.016Z,50.00
2019-04-14T20:59:37.620Z,49.90
2019-04-14T21:02:24.302Z,50.30
2019-04-14T21:04:55.592Z,50.60
2019-04-14T21:07:26.840Z,51.40
2019-04-14T21:09:58.079Z,50.90
2019-04-14T21:12:44.631Z,51.10
2019-04-14T21:15:15.863Z,51.20
2019-04-14T21:18:03.137Z,50.90
2019-04-14T21:20:34.623Z,50.90
2019-04-14T21:23:17.701Z,51.10
2019-04-14T21:26:00.158Z,51.10
2019-04-14T21:28:33.971Z,51.40
2019-04-14T21:31:05.266Z,51.70
2019-04-14T21:33:54.313Z,51.90
2019-04-14T21:36:25.520Z,51.90
2019-04-14T21:38:56.761Z,52.10
2019-04-14T21:41:27.975Z,52.40
2019-04-14T21:43:57.557Z,52.40
2019-04-14T21:46:27.131Z,52.70
2019-04-14T21:48:56.769Z,53.10
2019-04-14T21:51:27.922Z,53.40
2019-04-14T21:53:57.516Z,53.40
2019-04-14T21:56:28.735Z,53.30
2019-04-14T21:58:59.983Z,52.80
2019-04-14T22:01:52.537Z,52.70
2019-04-14T22:04:36.399Z,53.30
2019-04-14T22:07:16.898Z,53.60
2019-04-14T22:09:46.915Z,53.50
2019-04-14T22:12:16.493Z,53.40
2019-04-14T22:14:46.087Z,53.70
2019-04-14T22:17:16.046Z,53.80
2019-04-14T22:19:45.644Z,54.00
2019-04-14T22:22:15.231Z,54.00
2019-04-14T22:24:44.831Z,54.50
2019-04-14T22:27:14.403Z,54.60
2019-04-14T22:29:43.998Z,54.50
2019-04-14T22:32:14.574Z,54.30
2019-04-14T22:34:44.212Z,54.90
2019-04-14T22:37:13.829Z,54.80
2019-04-14T22:39:43.460Z,54.90
2019-04-14T22:42:13.040Z,54.90
2019-04-14T22:44:42.640Z,54.90
2019-04-14T22:47:12.216Z,55.30
2019-04-14T22:49:41.815Z,55.70
2019-04-14T22:52:11.409Z,55.70
2019-04-14T22:54:41.004Z,55.80
2019-04-14T22:57:10.603Z,56.00
2019-04-14T22:59:40.211Z,56.50
2019-04-14T23:02:17.683Z,56.00
2019-04-14T23:04:54.865Z,56.10
2019-04-14T23:07:28.999Z,56.20
2019-04-14T23:10:09.147Z,56.20
2019-04-14T23:12:40.367Z,56.50
2019-04-14T23:15:11.831Z,56.40
2019-04-14T23:17:43.056Z,56.50
2019-04-14T23:20:23.011Z,56.80
2019-04-14T23:23:08.217Z,57.20
2019-04-14T23:25:37.980Z,57.40
2019-04-14T23:28:07.626Z,57.50
2019-04-14T23:30:37.271Z,58.00
2019-04-14T23:33:06.848Z,58.00
2019-04-14T23:35:36.465Z,57.70
2019-04-14T23:38:06.215Z,57.80
2019-04-14T23:40:36.211Z,57.60
2019-04-14T23:43:05.792Z,57.40
2019-04-14T23:45:35.409Z,57.40
2019-04-14T23:48:05.062Z,57.60
2019-04-14T23:50:34.648Z,57.80
2019-04-14T23:53:04.264Z,57.80
2019-04-14T23:55:34.119Z,57.80
2019-04-14T23:58:03.788Z,58.50
